Time;durP1;ratioP1;P1;durP2;ratioP2;P2;SDS_P1;SDS_P2;PMS_P1;PMS_P2;Temp;Humidity;BMP_temperature;BMP_pressure;BME280_temperature;BME280_humidity;BME280_pressure;Samples;Min_cycle;Max_cycle;Signal;HPM_P1;HPM_P2
2023/08/17 00:02:14;;;;;;;15.45;12.15;;;18.40;99.90;;;;;;5058980;28;20120;-61
2023/08/17 00:04:44;;;;;;;16.27;11.73;;;18.30;99.90;;;;;;5051272;28;20500;-60
2023/08/17 00:07:11;;;;;;;15.85;11.73;;;18.40;99.90;;;;;;5053807;28;20041;-62
2023/08/17 00:09:39;;;;;;;14.85;11.40;;;18.50;99.90;;;;;;5056266;28;20041;-61
2023/08/17 00:12:06;;;;;;;15.30;11.10;;;18.50;99.90;;;;;;5051539;28;20044;-62
2023/08/17 00:14:33;;;;;;;;;;;18.60;99.90;;;;;;5053281;28;20041;-61
2023/08/17 00:17:00;;;;;;;15.13;11.20;;;18.60;99.90;;;;;;5069285;28;19924;-62
2023/08/17 00:19:26;;;;;;;14.77;11.15;;;18.50;99.90;;;;;;5071584;28;20037;-62
2023/08/17 00:21:55;;;;;;;14.52;11.82;;;18.40;99.90;;;;;;5071076;28;20037;-62
2023/08/17 00:24:21;;;;;;;17.48;12.52;;;18.40;99.90;;;;;;5061676;28;20044;-61
2023/08/17 00:26:48;;;;;;;21.92;12.70;;;18.30;99.90;;;;;;5057202;28;20386;-60
2023/08/17 00:29:15;;;;;;;14.32;11.95;;;18.30;99.90;;;;;;5041652;28;20049;-62
2023/08/17 00:31:42;;;;;;;15.95;12.32;;;18.30;99.90;;;;;;5040710;28;20045;-62
2023/08/17 00:34:09;;;;;;;16.85;12.82;;;18.30;99.90;;;;;;5039827;28;20044;-62
2023/08/17 00:36:35;;;;;;;18.20;12.38;;;18.30;99.90;;;;;;5066223;28;20045;-62
2023/08/17 00:39:02;;;;;;;15.60;11.80;;;18.30;99.90;;;;;;5042667;28;20045;-62
2023/08/17 00:41:30;;;;;;;16.77;12.35;;;18.30;99.90;;;;;;5041265;28;20495;-62
2023/08/17 00:43:57;;;;;;;14.27;12.00;;;18.30;99.90;;;;;;5037038;28;20076;-62
2023/08/17 00:46:25;;;;;;;21.30;13.10;;;18.30;99.90;;;;;;5053571;28;20048;-62
2023/08/17 00:48:52;;;;;;;15.32;11.35;;;18.30;99.90;;;;;;5053902;28;20489;-61
2023/08/17 00:51:20;;;;;;;14.93;12.32;;;18.40;99.90;;;;;;5067181;28;20045;-62
2023/08/17 00:53:47;;;;;;;15.25;11.35;;;18.30;99.90;;;;;;5049068;28;20045;-62
2023/08/17 00:56:14;;;;;;;;;;;18.40;99.90;;;;;;5048354;28;20409;-62
2023/08/17 00:58:42;;;;;;;17.25;12.57;;;18.40;99.90;;;;;;5042059;28;20438;-62
2023/08/17 01:01:09;;;;;;;16.85;11.25;;;18.40;99.90;;;;;;5045082;28;20490;-62
2023/08/17 01:03:40;;;;;;;18.35;11.68;;;18.40;99.90;;;;;;5054610;28;20519;-62
2023/08/17 01:06:08;;;;;;;18.13;12.02;;;18.30;99.90;;;;;;5062538;28;20445;-62
2023/08/17 01:08:36;;;;;;;16.05;13.27;;;18.10;99.90;;;;;;5054463;28;20371;-62
2023/08/17 01:11:15;;;;;;;20.75;13.60;;;18.00;99.90;;;;;;5054802;28;20048;-62
2023/08/17 01:14:00;;;;;;;19.52;13.35;;;17.80;99.90;;;;;;5047145;28;20041;-61
2023/08/17 01:16:36;;;;;;;17.73;13.38;;;17.80;99.90;;;;;;5058042;28;20049;-61
2023/08/17 01:19:08;;;;;;;17.27;13.17;;;17.70;99.90;;;;;;5051916;28;20048;-62
2023/08/17 01:21:42;;;;;;;20.85;14.98;;;17.60;99.90;;;;;;5044566;28;20291;-62
2023/08/17 01:24:11;;;;;;;17.60;13.13;;;17.60;99.90;;;;;;5064132;28;20033;-62
2023/08/17 01:26:38;;;;;;;26.40;13.15;;;17.60;99.90;;;;;;5060853;28;20124;-62
2023/08/17 01:29:05;;;;;;;16.58;13.52;;;17.50;99.90;;;;;;5071835;28;20040;-62
2023/08/17 01:31:44;;;;;;;20.38;14.55;;;17.50;99.90;;;;;;5043051;28;20029;-62
2023/08/17 01:34:18;;;;;;;19.67;13.40;;;17.50;99.90;;;;;;5062333;28;20041;-62
2023/08/17 01:36:55;;;;;;;17.40;13.93;;;17.50;99.90;;;;;;5060470;28;20048;-62
2023/08/17 01:39:27;;;;;;;16.65;13.65;;;17.40;99.90;;;;;;5064598;28;20135;-62
2023/08/17 01:41:58;;;;;;;22.65;13.05;;;17.50;99.90;;;;;;5047053;28;20049;-61
2023/08/17 01:44:27;;;;;;;16.58;12.68;;;17.40;99.90;;;;;;5058095;28;20052;-62
2023/08/17 01:46:54;;;;;;;20.38;13.73;;;17.40;99.90;;;;;;5041090;28;20498;-62
2023/08/17 01:49:22;;;;;;;15.75;12.85;;;17.40;99.90;;;;;;5044617;28;20114;-62
2023/08/17 01:51:49;;;;;;;18.65;12.82;;;17.40;99.90;;;;;;5035935;28;20044;-60
2023/08/17 01:54:15;;;;;;;20.88;14.55;;;17.40;99.90;;;;;;5042074;28;20041;-61
2023/08/17 01:56:42;;;;;;;19.85;13.25;;;17.40;99.90;;;;;;5042281;28;20049;-62
2023/08/17 01:59:09;;;;;;;16.65;12.70;;;17.40;99.90;;;;;;5037304;28;20055;-62
2023/08/17 02:01:36;;;;;;;17.38;12.88;;;17.40;99.90;;;;;;5058017;28;20068;-61
2023/08/17 02:04:03;;;;;;;;;;;17.30;99.90;;;;;;5040790;28;20084;-62
2023/08/17 02:06:30;;;;;;;17.60;12.85;;;17.30;99.90;;;;;;5055703;28;19927;-62
2023/08/17 02:08:58;;;;;;;15.52;13.10;;;17.20;99.90;;;;;;5039319;28;20049;-62
2023/08/17 02:11:25;;;;;;;18.20;13.68;;;17.20;99.90;;;;;;5052379;28;20405;-62
2023/08/17 02:13:52;;;;;;;20.88;12.32;;;17.10;99.90;;;;;;5049995;28;20044;-61
2023/08/17 02:16:19;;;;;;;18.83;13.23;;;17.10;99.90;;;;;;5056040;28;20041;-61
2023/08/17 02:18:46;;;;;;;17.35;13.05;;;17.10;99.90;;;;;;5058788;28;20137;-61
2023/08/17 02:21:12;;;;;;;19.38;12.50;;;17.10;99.90;;;;;;5069382;28;20043;-61
2023/08/17 02:23:39;;;;;;;15.68;12.95;;;17.10;99.90;;;;;;5053077;28;20436;-61
2023/08/17 02:26:06;;;;;;;15.10;12.65;;;17.00;99.90;;;;;;5043443;28;20515;-62
2023/08/17 02:28:33;;;;;;;16.73;13.27;;;17.00;99.90;;;;;;5047627;28;20047;-62
2023/08/17 02:30:59;;;;;;;18.98;13.23;;;17.00;99.90;;;;;;5039136;28;20498;-62
2023/08/17 02:33:27;;;;;;;16.65;12.07;;;17.00;99.90;;;;;;5055398;28;20127;-62
2023/08/17 02:35:54;;;;;;;16.55;13.45;;;17.00;99.90;;;;;;5054142;28;20053;-61
2023/08/17 02:38:21;;;;;;;17.27;13.10;;;17.00;99.90;;;;;;5060997;28;20108;-62
2023/08/17 02:40:49;;;;;;;17.40;13.05;;;17.00;99.90;;;;;;5042721;28;20063;-61
2023/08/17 02:43:16;;;;;;;18.30;12.60;;;17.00;99.90;;;;;;5069681;28;20516;-62
2023/08/17 02:45:43;;;;;;;17.10;12.80;;;17.10;99.90;;;;;;5052185;28;20033;-61
2023/08/17 02:48:10;;;;;;;20.52;12.95;;;17.10;99.90;;;;;;5051391;28;20049;-61
2023/08/17 02:50:37;;;;;;;18.55;13.10;;;17.00;99.90;;;;;;5034197;28;20119;-62
2023/08/17 02:53:04;;;;;;;16.13;12.80;;;17.00;99.90;;;;;;5034771;28;20040;-61
2023/08/17 02:55:31;;;;;;;16.38;12.55;;;17.00;99.90;;;;;;5059380;28;20045;-62
2023/08/17 02:57:57;;;;;;;15.65;13.13;;;16.90;99.90;;;;;;5034853;28;20060;-62
2023/08/17 03:00:24;;;;;;;17.00;12.57;;;17.00;99.90;;;;;;5059860;28;20052;-62
2023/08/17 03:02:53;;;;;;;15.18;11.95;;;17.00;99.90;;;;;;5051069;28;20060;-61
2023/08/17 03:05:22;;;;;;;16.15;12.88;;;17.00;99.90;;;;;;5064419;28;20045;-62
2023/08/17 03:07:49;;;;;;;17.60;12.80;;;17.00;99.90;;;;;;5064189;28;20083;-61
2023/08/17 03:10:16;;;;;;;16.33;12.73;;;16.90;99.90;;;;;;5035906;28;20569;-61
2023/08/17 03:12:45;;;;;;;19.60;12.38;;;16.90;99.90;;;;;;5058037;28;20044;-61
2023/08/17 03:15:11;;;;;;;18.85;12.35;;;16.90;99.90;;;;;;5062107;28;20048;-61
2023/08/17 03:17:38;;;;;;;18.80;12.65;;;17.00;99.90;;;;;;5051131;28;20464;-60
2023/08/17 03:20:06;;;;;;;18.40;12.65;;;17.00;99.90;;;;;;5043338;28;20743;-61
2023/08/17 03:22:34;;;;;;;14.88;11.93;;;16.90;99.90;;;;;;5058026;28;20033;-62
2023/08/17 03:25:01;;;;;;;17.00;11.93;;;17.00;99.90;;;;;;5033854;28;20450;-62
2023/08/17 03:27:29;;;;;;;17.52;11.85;;;16.90;99.90;;;;;;5034277;28;20253;-62
2023/08/17 03:29:56;;;;;;;16.23;12.13;;;16.90;99.90;;;;;;5065500;28;20106;-62
2023/08/17 03:32:23;;;;;;;17.20;13.25;;;16.90;99.90;;;;;;5061413;28;20460;-60
2023/08/17 03:34:50;;;;;;;12.55;10.82;;;16.90;99.90;;;;;;5039917;28;20103;-61
2023/08/17 03:37:17;;;;;;;14.63;11.77;;;16.90;99.90;;;;;;5051773;28;20044;-62
2023/08/17 03:39:44;;;;;;;18.60;12.15;;;16.90;99.90;;;;;;5046017;28;20135;-62
2023/08/17 03:42:10;;;;;;;15.20;11.68;;;17.00;99.90;;;;;;5045127;28;20044;-62
2023/08/17 03:44:37;;;;;;;19.27;11.23;;;16.90;99.90;;;;;;5050901;28;20041;-62
2023/08/17 03:47:05;;;;;;;16.88;11.98;;;17.00;99.90;;;;;;5037311;28;20059;-62
2023/08/17 03:49:39;;;;;;;15.63;11.85;;;17.00;99.90;;;;;;5043859;28;20056;-61
2023/08/17 03:52:06;;;;;;;19.42;12.65;;;16.90;99.90;;;;;;5045110;28;20044;-61
2023/08/17 03:54:32;;;;;;;14.98;12.00;;;16.90;99.90;;;;;;5060484;28;20040;-62
2023/08/17 03:56:59;;;;;;;23.48;12.82;;;16.90;99.90;;;;;;5034477;28;20079;-62
2023/08/17 03:59:26;;;;;;;18.67;12.40;;;16.90;99.90;;;;;;5039627;28;20049;-61
2023/08/17 04:01:53;;;;;;;17.83;12.75;;;16.80;99.90;;;;;;5065984;28;20043;-62
2023/08/17 04:04:19;;;;;;;17.63;13.48;;;16.70;99.90;;;;;;5043373;28;20056;-61
2023/08/17 04:06:46;;;;;;;18.50;12.68;;;16.70;99.90;;;;;;5033810;28;20136;-62
2023/08/17 04:09:13;;;;;;;18.98;13.07;;;16.60;99.90;;;;;;5048164;28;20036;-62
2023/08/17 04:11:42;;;;;;;15.75;13.23;;;16.60;99.90;;;;;;5053482;28;20078;-60
2023/08/17 04:14:09;;;;;;;16.17;12.77;;;16.60;99.90;;;;;;5044166;28;20531;-62
2023/08/17 04:16:38;;;;;;;32.30;13.90;;;16.60;99.90;;;;;;5041407;28;20037;-61
2023/08/17 04:19:06;;;;;;;20.55;13.35;;;16.50;99.90;;;;;;5051183;28;20124;-61
2023/08/17 04:21:34;;;;;;;16.88;13.13;;;16.50;99.90;;;;;;5057239;28;20134;-62
2023/08/17 04:24:01;;;;;;;20.40;14.48;;;16.60;99.90;;;;;;5066900;28;20039;-61
2023/08/17 04:26:29;;;;;;;17.40;13.60;;;16.60;99.90;;;;;;5071197;28;20039;-62
2023/08/17 04:28:55;;;;;;;21.10;13.15;;;16.60;99.90;;;;;;5053043;28;20040;-61
2023/08/17 04:31:23;;;;;;;19.70;13.43;;;16.60;99.90;;;;;;5065051;28;20548;-62
2023/08/17 04:33:57;;;;;;;20.00;12.50;;;16.60;99.90;;;;;;5055486;28;20041;-61
2023/08/17 04:36:23;;;;;;;18.40;12.75;;;16.70;99.90;;;;;;5034981;28;20110;-62
2023/08/17 04:38:50;;;;;;;15.55;12.60;;;16.60;99.90;;;;;;5040142;28;20045;-61
2023/08/17 04:41:17;;;;;;;21.70;13.60;;;16.70;99.90;;;;;;5053842;28;20045;-62
2023/08/17 04:43:49;;;;;;;15.82;12.15;;;16.80;99.90;;;;;;5038865;28;20066;-61
2023/08/17 04:46:16;;;;;;;19.75;12.05;;;16.80;99.90;;;;;;5058962;28;20033;-60
2023/08/17 04:48:43;;;;;;;;;;;16.80;99.90;;;;;;5033718;28;20069;-61
2023/08/17 04:51:11;;;;;;;16.58;10.40;;;16.80;99.90;;;;;;5033357;28;19956;-61
2023/08/17 04:53:40;;;;;;;13.82;11.25;;;16.80;99.90;;;;;;5020994;28;20052;-60
2023/08/17 04:56:08;;;;;;;17.23;10.95;;;16.80;99.90;;;;;;5050362;28;20059;-61
2023/08/17 04:58:35;;;;;;;17.77;10.55;;;16.90;99.90;;;;;;5041957;28;20043;-61
2023/08/17 05:01:02;;;;;;;14.15;10.98;;;16.90;99.90;;;;;;5039785;28;20126;-61
2023/08/17 05:03:29;;;;;;;17.67;11.23;;;16.90;99.90;;;;;;5042780;28;20098;-62
2023/08/17 05:06:00;;;;;;;13.20;10.70;;;16.90;99.90;;;;;;5031993;28;20041;-61
2023/08/17 05:08:27;;;;;;;13.57;10.93;;;16.90;99.90;;;;;;5039409;28;20037;-62
2023/08/17 05:10:54;;;;;;;16.85;12.25;;;16.90;99.90;;;;;;5043716;28;20442;-61
2023/08/17 05:13:21;;;;;;;16.63;11.80;;;16.90;99.90;;;;;;5041388;28;20041;-61
2023/08/17 05:15:48;;;;;;;14.10;11.02;;;17.00;99.90;;;;;;5038704;28;20099;-61
2023/08/17 05:18:15;;;;;;;16.70;11.15;;;17.10;99.90;;;;;;5033720;28;20418;-61
2023/08/17 05:20:44;;;;;;;13.88;10.75;;;17.10;99.90;;;;;;5039517;28;20163;-62
2023/08/17 05:23:11;;;;;;;15.32;10.55;;;17.20;99.90;;;;;;5048126;28;20456;-61
2023/08/17 05:25:37;;;;;;;13.00;10.52;;;17.20;99.90;;;;;;5048221;28;20045;-62
2023/08/17 05:28:05;;;;;;;16.63;10.50;;;17.20;99.90;;;;;;5037813;28;20037;-62
2023/08/17 05:30:32;;;;;;;17.20;11.52;;;17.30;99.90;;;;;;5053408;28;20048;-61
2023/08/17 05:33:03;;;;;;;15.15;11.93;;;17.40;99.90;;;;;;5050598;22;20053;31
2023/08/17 05:35:31;;;;;;;14.20;10.68;;;17.40;99.90;;;;;;5007217;28;20042;-61
2023/08/17 05:37:58;;;;;;;18.83;12.07;;;17.50;99.90;;;;;;5014734;28;20406;-61
2023/08/17 05:40:25;;;;;;;17.27;11.68;;;17.50;99.90;;;;;;5013167;28;20042;-62
2023/08/17 05:42:52;;;;;;;17.42;11.75;;;17.70;99.90;;;;;;5013292;28;20034;-62
2023/08/17 05:45:18;;;;;;;19.13;11.38;;;17.70;99.90;;;;;;5016266;28;20038;-62
2023/08/17 05:47:45;;;;;;;13.57;11.27;;;17.70;99.90;;;;;;5004427;28;20053;-60
2023/08/17 05:50:12;;;;;;;14.95;11.63;;;17.80;99.90;;;;;;5014223;28;20065;-62
2023/08/17 05:52:40;;;;;;;19.02;11.95;;;17.90;99.90;;;;;;5023618;28;20057;-62
2023/08/17 05:55:07;;;;;;;17.52;10.65;;;17.90;99.90;;;;;;5027333;28;20038;-62
2023/08/17 05:57:34;;;;;;;15.65;9.95;;;18.00;99.90;;;;;;5015924;28;20046;-62
2023/08/17 06:00:01;;;;;;;13.35;9.68;;;18.00;99.90;;;;;;5025962;28;20576;-62
2023/08/17 06:02:38;;;;;;;13.10;9.48;;;18.00;99.90;;;;;;5029852;28;20400;-61
2023/08/17 06:05:06;;;;;;;15.95;10.23;;;18.10;99.90;;;;;;5027451;28;20053;-62
2023/08/17 06:07:32;;;;;;;;;;;18.10;99.90;;;;;;5023539;28;20127;-62
2023/08/17 06:09:59;;;;;;;12.05;8.90;;;18.20;99.90;;;;;;5019860;28;19922;-62
2023/08/17 06:12:26;;;;;;;12.15;9.23;;;18.30;99.90;;;;;;5033476;28;20033;-62
2023/08/17 06:14:52;;;;;;;12.95;9.52;;;18.30;99.90;;;;;;5025063;28;20046;-61
2023/08/17 06:17:19;;;;;;;13.05;9.98;;;18.50;99.90;;;;;;5017181;28;20052;-62
2023/08/17 06:19:46;;;;;;;16.08;9.65;;;18.60;99.90;;;;;;5025947;28;20403;-62
2023/08/17 06:22:13;;;;;;;13.98;9.80;;;18.60;99.90;;;;;;5028469;28;20045;-61
2023/08/17 06:24:39;;;;;;;15.00;10.10;;;18.70;99.90;;;;;;5019858;28;20053;-61
2023/08/17 06:27:06;;;;;;;16.00;10.23;;;18.70;99.90;;;;;;5032655;28;20041;-62
2023/08/17 06:29:33;;;;;;;17.10;10.02;;;18.90;99.90;;;;;;5015628;28;20431;-62
2023/08/17 06:31:59;;;;;;;12.68;9.05;;;18.90;99.90;;;;;;5024801;28;20052;-62
2023/08/17 06:34:26;;;;;;;12.50;10.32;;;19.00;99.90;;;;;;5021453;28;20410;-62
2023/08/17 06:37:01;;;;;;;12.25;10.07;;;19.10;99.90;;;;;;5013217;28;20046;-61
2023/08/17 06:39:28;;;;;;;13.52;9.23;;;19.20;99.90;;;;;;5019652;28;20498;-62
2023/08/17 06:41:55;;;;;;;9.93;7.65;;;19.30;99.90;;;;;;5024838;28;20052;-62
2023/08/17 06:44:21;;;;;;;10.18;7.90;;;19.50;99.90;;;;;;5023475;28;20049;-61
2023/08/17 06:46:48;;;;;;;13.75;8.38;;;19.70;99.90;;;;;;5020710;28;20041;-62
2023/08/17 06:49:15;;;;;;;9.30;7.30;;;19.90;99.90;;;;;;5026171;28;20033;-62
2023/08/17 06:51:42;;;;;;;14.30;7.68;;;20.00;99.90;;;;;;5030959;28;20049;-62
2023/08/17 06:54:09;;;;;;;11.38;7.03;;;20.10;99.90;;;;;;5020300;28;20052;-62
2023/08/17 06:56:36;;;;;;;9.07;7.85;;;20.30;99.90;;;;;;5020925;28;20137;-62
2023/08/17 06:59:03;;;;;;;9.57;7.93;;;20.40;99.90;;;;;;5032684;28;20048;-62
2023/08/17 07:01:30;;;;;;;9.02;6.50;;;20.60;99.90;;;;;;5014846;28;20070;-62
2023/08/17 07:03:57;;;;;;;8.82;6.32;;;20.70;99.90;;;;;;5019603;28;20046;-62
2023/08/17 07:06:25;;;;;;;6.22;5.45;;;20.90;99.90;;;;;;5026780;28;20488;-61
2023/08/17 07:08:52;;;;;;;10.38;7.15;;;21.00;99.90;;;;;;5022842;28;20045;-62
2023/08/17 07:11:19;;;;;;;10.70;8.23;;;21.00;99.90;;;;;;5023404;28;20038;-61
2023/08/17 07:13:46;;;;;;;9.68;6.68;;;21.10;99.90;;;;;;5020569;28;20030;-62
2023/08/17 07:16:13;;;;;;;;;;;21.10;99.90;;;;;;5032187;28;20052;-62
2023/08/17 07:18:40;;;;;;;8.68;6.40;;;21.30;99.90;;;;;;5023830;28;19944;-62
2023/08/17 07:21:07;;;;;;;9.73;5.85;;;21.50;99.90;;;;;;5017386;28;20049;-62
2023/08/17 07:23:33;;;;;;;15.75;6.88;;;21.60;99.90;;;;;;5017813;28;20055;-62
2023/08/17 07:26:00;;;;;;;8.70;5.53;;;21.80;99.90;;;;;;5011865;28;20044;-62
2023/08/17 07:28:27;;;;;;;6.00;5.40;;;21.90;99.90;;;;;;5018638;28;20029;-61
2023/08/17 07:30:54;;;;;;;5.22;4.72;;;22.10;99.90;;;;;;5028432;28;20487;-62
2023/08/17 07:33:21;;;;;;;6.47;4.55;;;22.30;99.90;;;;;;5018210;28;20038;-62
2023/08/17 07:35:47;;;;;;;7.95;4.10;;;22.30;99.90;;;;;;5028624;28;20041;-62
2023/08/17 07:38:14;;;;;;;5.80;3.85;;;22.40;99.90;;;;;;5024966;28;20394;-62
2023/08/17 07:40:42;;;;;;;5.95;4.43;;;22.50;99.90;;;;;;5022097;28;20046;-62
2023/08/17 07:43:09;;;;;;;10.02;5.32;;;22.60;99.90;;;;;;5019390;28;20041;-62
2023/08/17 07:45:36;;;;;;;11.38;4.85;;;22.70;99.90;;;;;;5013532;28;20603;-62
2023/08/17 07:48:03;;;;;;;5.40;4.22;;;22.80;99.90;;;;;;5016241;28;20569;-62
2023/08/17 07:50:30;;;;;;;;;;;22.80;99.90;;;;;;5011357;28;20129;-62
2023/08/17 07:52:56;;;;;;;6.28;4.28;;;22.80;99.90;;;;;;5019931;28;19928;-62
2023/08/17 07:55:25;;;;;;;5.05;4.20;;;22.80;99.90;;;;;;5015451;28;20053;-62
2023/08/17 07:57:52;;;;;;;6.38;4.10;;;22.90;99.90;;;;;;5027572;28;20061;-62
2023/08/17 08:00:19;;;;;;;6.47;4.10;;;23.00;99.90;;;;;;5021669;28;20042;-62
2023/08/17 08:02:46;;;;;;;8.82;4.53;;;23.10;99.90;;;;;;5031200;28;20074;-62
2023/08/17 08:05:14;;;;;;;8.00;4.10;;;23.20;99.90;;;;;;5022009;28;20505;-61
2023/08/17 08:07:41;;;;;;;8.32;4.53;;;23.40;99.90;;;;;;5021802;28;20041;-62
2023/08/17 08:10:08;;;;;;;8.57;3.90;;;23.40;99.90;;;;;;5014200;28;20034;-62
2023/08/17 08:12:35;;;;;;;;;;;23.50;99.90;;;;;;5011566;28;20048;-62
2023/08/17 08:15:02;;;;;;;9.25;4.43;;;23.50;99.90;;;;;;5009932;28;20414;-62
2023/08/17 08:17:28;;;;;;;5.47;4.45;;;23.40;99.90;;;;;;5029435;28;20050;-62
2023/08/17 08:19:56;;;;;;;7.30;4.60;;;23.50;99.90;;;;;;5022233;28;20037;-62
2023/08/17 08:22:23;;;;;;;;;;;23.70;99.90;;;;;;5029989;28;20402;-62
2023/08/17 08:24:49;;;;;;;4.90;4.40;;;23.80;99.90;;;;;;5028929;28;19929;-62
2023/08/17 08:27:16;;;;;;;5.93;4.60;;;23.90;99.90;;;;;;5026460;28;20116;-62
2023/08/17 08:29:43;;;;;;;8.00;4.90;;;24.10;99.90;;;;;;5029084;28;20053;-62
2023/08/17 08:32:10;;;;;;;4.97;4.28;;;24.20;99.90;;;;;;5026354;28;20038;-62
2023/08/17 08:34:36;;;;;;;5.82;4.63;;;24.30;99.90;;;;;;5018474;28;20401;-61
2023/08/17 08:37:03;;;;;;;4.18;3.67;;;24.30;99.90;;;;;;5023102;28;20051;-62
2023/08/17 08:39:30;;;;;;;5.97;3.95;;;24.50;99.90;;;;;;5030032;28;20053;-62
2023/08/17 08:41:57;;;;;;;6.75;5.00;;;24.60;99.90;;;;;;5022536;28;20156;-62
2023/08/17 08:44:24;;;;;;;6.03;3.97;;;24.80;99.90;;;;;;5022101;28;20041;-62
2023/08/17 08:46:56;;;;;;;5.63;4.68;;;24.90;99.90;;;;;;5020560;28;20049;-62
2023/08/17 08:49:24;;;;;;;5.25;4.40;;;24.90;99.90;;;;;;5010166;28;20046;-62
2023/08/17 08:51:52;;;;;;;3.97;3.55;;;25.00;99.90;;;;;;5013067;28;20030;-62
2023/08/17 08:54:23;;;;;;;6.93;3.50;;;25.10;99.90;;;;;;5029107;28;20038;-62
2023/08/17 08:56:58;;;;;;;11.20;3.85;;;25.20;99.90;;;;;;5012374;28;20078;-62
2023/08/17 08:59:26;;;;;;;4.82;3.45;;;25.30;99.90;;;;;;5017127;28;20037;-62
2023/08/17 09:01:55;;;;;;;5.72;4.15;;;25.40;99.90;;;;;;5022876;28;20052;-62
2023/08/17 09:04:23;;;;;;;6.97;4.47;;;25.40;99.90;;;;;;5022885;28;20084;-62
2023/08/17 09:06:51;;;;;;;5.32;4.57;;;25.60;99.90;;;;;;5024362;28;20038;-62
2023/08/17 09:09:18;;;;;;;4.85;4.22;;;25.50;99.90;;;;;;5026027;28;20033;-62
2023/08/17 09:11:45;;;;;;;7.43;4.70;;;25.30;99.90;;;;;;5025925;28;20112;-62
2023/08/17 09:14:11;;;;;;;9.90;4.38;;;25.30;99.90;;;;;;5029668;28;20034;-62
2023/08/17 09:16:38;;;;;;;6.90;4.82;;;25.30;99.90;;;;;;5022819;28;20033;-62
2023/08/17 09:19:05;;;;;;;;;;;25.50;99.90;;;;;;5017351;28;20034;-62
2023/08/17 09:21:35;;;;;;;4.57;3.88;;;25.60;99.90;;;;;;5014542;28;19927;-62
2023/08/17 09:24:02;;;;;;;6.43;4.47;;;25.80;99.90;;;;;;5017689;28;20048;-62
2023/08/17 09:26:32;;;;;;;5.35;4.05;;;26.00;99.90;;;;;;5034333;28;20037;-62
2023/08/17 09:28:59;;;;;;;5.13;4.28;;;26.20;99.90;;;;;;5023129;28;20041;-62
2023/08/17 09:31:30;;;;;;;5.38;4.30;;;26.20;99.90;;;;;;5014261;28;20079;-62
2023/08/17 09:33:57;;;;;;;6.45;4.72;;;26.30;99.90;;;;;;5013078;28;20132;-62
2023/08/17 09:36:27;;;;;;;7.47;4.72;;;26.20;99.90;;;;;;5022059;28;20145;-62
2023/08/17 09:38:55;;;;;;;5.30;4.72;;;26.20;99.90;;;;;;5026702;28;20060;-62
2023/08/17 09:41:22;;;;;;;6.18;5.10;;;26.10;99.90;;;;;;5028831;28;20042;-62
2023/08/17 09:43:55;;;;;;;6.32;5.03;;;25.90;99.90;;;;;;5023589;28;20041;-62
2023/08/17 09:46:21;;;;;;;7.63;4.75;;;25.70;99.90;;;;;;5024652;28;20041;-62
2023/08/17 09:48:48;;;;;;;7.82;4.97;;;25.60;99.90;;;;;;5024453;28;20034;-62
2023/08/17 09:51:16;;;;;;;7.82;5.07;;;25.50;99.90;;;;;;5025512;28;20139;-62
2023/08/17 09:53:43;;;;;;;8.80;5.43;;;25.50;99.90;;;;;;5032328;28;20049;-62
2023/08/17 09:56:13;;;;;;;5.63;5.07;;;25.50;99.90;;;;;;5025506;28;20116;-62
2023/08/17 09:58:43;;;;;;;9.10;5.10;;;25.50;99.90;;;;;;5024583;28;20056;-62
2023/08/17 10:01:10;;;;;;;;;;;25.60;99.90;;;;;;5025663;28;20045;-62
2023/08/17 10:03:41;;;;;;;6.00;5.40;;;25.70;99.90;;;;;;5017780;28;20279;-62
2023/08/17 10:06:12;;;;;;;8.68;5.25;;;26.00;99.90;;;;;;5013183;28;20491;-62
2023/08/17 10:08:59;;;;;;;6.05;4.78;;;26.10;99.90;;;;;;5018735;28;20398;-62
2023/08/17 10:11:26;;;;;;;5.63;4.88;;;26.00;99.90;;;;;;5027538;28;20095;-62
2023/08/17 10:14:10;;;;;;;8.55;4.90;;;26.20;99.90;;;;;;5023676;28;20037;-62
2023/08/17 10:16:57;;;;;;;5.10;4.50;;;26.30;99.90;;;;;;5028356;28;20033;-62
2023/08/17 10:19:30;;;;;;;5.95;4.75;;;26.40;99.90;;;;;;5027102;28;20045;-62
2023/08/17 10:22:00;;;;;;;6.05;5.05;;;26.40;99.90;;;;;;5015040;28;20421;-62
2023/08/17 10:24:28;;;;;;;7.40;4.55;;;26.50;99.90;;;;;;5025685;28;20147;-62
2023/08/17 10:26:56;;;;;;;5.18;4.70;;;26.60;99.90;;;;;;5023583;28;20429;-62
2023/08/17 10:29:24;;;;;;;8.27;4.90;;;26.80;99.90;;;;;;5017383;28;20508;-62
2023/08/17 10:31:51;;;;;;;5.30;4.45;;;26.90;99.90;;;;;;5030811;28;20033;-62
2023/08/17 10:34:18;;;;;;;6.35;4.25;;;27.00;99.90;;;;;;5027108;28;20037;-62
2023/08/17 10:36:46;;;;;;;6.78;5.00;;;27.10;99.90;;;;;;5025095;28;20474;-62
2023/08/17 10:39:26;;;;;;;6.13;4.93;;;27.10;99.90;;;;;;5016345;28;20060;-63
2023/08/17 10:41:56;;;;;;;5.80;4.40;;;27.10;99.90;;;;;;5021948;28;20057;-63
2023/08/17 10:44:46;;;;;;;6.18;4.72;;;27.30;99.90;;;;;;5021267;28;20053;-63
2023/08/17 10:47:26;;;;;;;6.43;4.45;;;27.40;99.90;;;;;;5012761;28;20487;-63
2023/08/17 10:50:21;;;;;;;6.00;4.50;;;27.60;99.90;;;;;;5024090;28;20053;-63
2023/08/17 10:52:50;;;;;;;5.18;4.20;;;27.70;99.90;;;;;;5024985;28;20038;-63
2023/08/17 10:55:18;;;;;;;4.68;4.28;;;27.90;99.90;;;;;;5016427;28;20077;-63
2023/08/17 10:57:45;;;;;;;7.88;4.60;;;27.90;99.90;;;;;;5024334;28;20107;-63
2023/08/17 11:00:26;;;;;;;5.00;4.32;;;27.90;99.90;;;;;;5020140;28;20415;-63
2023/08/17 11:03:01;;;;;;;7.45;4.78;;;28.00;99.90;;;;;;5015921;28;20123;-62
2023/08/17 11:05:34;;;;;;;4.20;3.72;;;28.20;99.90;;;;;;5012334;28;20561;-63
2023/08/17 11:08:01;;;;;;;5.80;4.63;;;28.30;99.90;;;;;;5013596;28;20049;-63
2023/08/17 11:10:29;;;;;;;4.93;4.18;;;28.30;99.90;;;;;;5024129;28;20038;-63
2023/08/17 11:13:00;;;;;;;6.50;4.75;;;28.20;99.90;;;;;;5030699;28;20073;-61
2023/08/17 11:15:44;;;;;;;6.15;4.53;;;28.20;99.90;;;;;;5021679;28;20050;-63
2023/08/17 11:18:12;;;;;;;8.43;4.70;;;28.10;99.90;;;;;;5012264;28;20414;-63
2023/08/17 11:20:41;;;;;;;6.45;4.95;;;27.90;99.90;;;;;;5021353;28;20050;-63
2023/08/17 11:23:09;;;;;;;5.13;4.00;;;27.90;99.90;;;;;;5032456;28;20049;-63
2023/08/17 11:25:37;;;;;;;5.30;4.80;;;28.00;99.90;;;;;;5023581;28;20072;-63
2023/08/17 11:28:08;;;;;;;9.23;4.80;;;27.90;99.90;;;;;;5015990;28;20041;-62
2023/08/17 11:30:38;;;;;;;5.45;4.70;;;27.90;99.90;;;;;;5019933;28;20046;-63
2023/08/17 11:33:06;;;;;;;6.82;4.80;;;28.00;99.90;;;;;;5012242;28;20080;-63
2023/08/17 11:35:33;;;;;;;6.13;4.93;;;28.10;99.90;;;;;;5011614;28;20081;-63
2023/08/17 11:38:00;;;;;;;7.00;5.18;;;28.20;99.90;;;;;;5018291;28;20116;-63
2023/08/17 11:40:27;;;;;;;8.30;5.25;;;28.30;99.90;;;;;;5027857;28;20057;-63
2023/08/17 11:42:54;;;;;;;9.65;5.97;;;28.50;99.90;;;;;;5023890;28;20478;-63
2023/08/17 11:45:21;;;;;;;9.98;6.38;;;28.50;99.90;;;;;;5015278;28;20033;-63
2023/08/17 11:47:53;;;;;;;8.32;6.82;;;28.60;99.90;;;;;;5025528;28;20406;-62
2023/08/17 11:50:20;;;;;;;10.82;6.97;;;28.60;99.90;;;;;;5012488;28;20447;-62
2023/08/17 11:52:47;;;;;;;11.60;7.65;;;28.70;99.90;;;;;;5012164;28;20048;-63
2023/08/17 11:55:17;;;;;;;8.68;7.63;;;28.60;99.90;;;;;;5013141;28;20099;-63
2023/08/17 11:57:44;;;;;;;9.20;8.05;;;28.50;99.90;;;;;;5012375;28;20046;-62
2023/08/17 12:00:20;;;;;;;9.55;7.60;;;28.50;99.90;;;;;;5012134;28;20037;-63
2023/08/17 12:02:50;;;;;;;9.05;7.78;;;28.50;99.90;;;;;;5017010;28;20430;-62
2023/08/17 12:05:26;;;;;;;11.10;8.00;;;28.50;99.90;;;;;;5013425;28;20388;-62
2023/08/17 12:07:53;;;;;;;10.15;8.30;;;28.60;99.90;;;;;;5012400;28;20056;-63
2023/08/17 12:10:22;;;;;;;8.85;7.72;;;28.70;99.90;;;;;;5011625;28;20042;-62
2023/08/17 12:12:49;;;;;;;10.38;7.80;;;28.70;99.90;;;;;;5013132;28;20121;-63
2023/08/17 12:15:17;;;;;;;10.65;7.47;;;28.60;99.90;;;;;;5031704;28;20049;-63
2023/08/17 12:17:47;;;;;;;6.90;6.32;;;28.60;99.90;;;;;;5025329;28;20402;-62
2023/08/17 12:20:20;;;;;;;9.70;7.63;;;28.60;99.90;;;;;;5020275;28;20560;-63
2023/08/17 12:22:47;;;;;;;8.38;7.53;;;28.70;99.90;;;;;;5026987;28;20073;-62
2023/08/17 12:25:14;;;;;;;12.05;7.18;;;28.70;99.90;;;;;;5028522;28;20051;-62
2023/08/17 12:27:41;;;;;;;9.32;7.53;;;28.70;99.90;;;;;;5019346;28;20461;-62
2023/08/17 12:30:24;;;;;;;11.13;7.57;;;28.60;99.90;;;;;;5030447;28;20049;-62
2023/08/17 12:32:51;;;;;;;9.27;7.28;;;28.70;99.90;;;;;;5031968;28;20053;-63
2023/08/17 12:35:19;;;;;;;;;;;28.60;99.90;;;;;;5028712;28;20041;-63
2023/08/17 12:37:45;;;;;;;;;;;28.60;99.90;;;;;;5019652;28;19977;-63
2023/08/17 12:40:12;;;;;;;7.40;6.70;;;28.60;99.90;;;;;;5016205;28;19921;-63
2023/08/17 12:42:39;;;;;;;7.90;6.60;;;28.60;99.90;;;;;;5012849;28;20521;-62
2023/08/17 12:45:06;;;;;;;;;;;28.60;99.90;;;;;;5015915;28;20497;-63
2023/08/17 12:47:32;;;;;;;8.50;6.53;;;28.60;99.90;;;;;;5031062;28;19921;-62